createdAt,value
2016-11-08T00:00:17.153Z,23.96
2016-11-08T00:01:17.522Z,23.97
2016-11-08T00:02:17.482Z,24.27
2016-11-08T00:03:17.487Z,24.66
2016-11-08T00:04:17.181Z,24.27
2016-11-08T00:05:17.186Z,24.16
2016-11-08T00:06:17.580Z,24.56
2016-11-08T00:07:17.624Z,24.45
2016-11-08T00:08:17.212Z,24.55
2016-11-08T00:09:18.453Z,24.37
2016-11-08T00:10:17.247Z,24.65
2016-11-08T00:11:17.549Z,24.35
2016-11-08T00:12:17.607Z,24.35
2016-11-08T00:13:17.248Z,24.46
2016-11-08T00:14:17.572Z,24.46
2016-11-08T00:15:17.264Z,24.16
2016-11-08T00:16:17.583Z,23.96
2016-11-08T00:17:17.591Z,24.55
2016-11-08T00:18:17.697Z,24.55
2016-11-08T00:19:17.608Z,24.55
2016-11-08T00:20:17.667Z,24.55
2016-11-08T00:21:17.309Z,24.26
2016-11-08T00:22:17.631Z,24.55
2016-11-08T00:23:17.641Z,24.55
2016-11-08T00:24:17.646Z,24.45
2016-11-08T00:25:17.340Z,24.45
2016-11-08T00:26:17.661Z,24.27
2016-11-08T00:27:17.357Z,24.45
2016-11-08T00:28:17.727Z,24.55
2016-11-08T00:29:17.374Z,24.26
2016-11-08T00:30:17.380Z,24.45
2016-11-08T00:31:18.652Z,24.26
2016-11-08T00:32:17.707Z,24.45
2016-11-08T00:33:17.763Z,24.16
2016-11-08T00:34:17.720Z,24.55
2016-11-08T00:35:17.730Z,24.35
2016-11-08T00:36:17.737Z,24.45
2016-11-08T00:37:17.434Z,24.17
2016-11-08T00:38:17.802Z,24.07
2016-11-08T00:39:17.449Z,24.35
2016-11-08T00:40:17.554Z,24.45
2016-11-08T00:41:17.826Z,24.35
2016-11-08T00:42:17.472Z,24.26
2016-11-08T00:43:17.792Z,24.35
2016-11-08T00:44:17.800Z,24.16
2016-11-08T00:45:17.492Z,24.16
2016-11-08T00:46:17.507Z,24.16
2016-11-08T00:47:17.823Z,24.55
2016-11-08T00:48:17.827Z,24.45
2016-11-08T00:49:17.885Z,24.55
2016-11-08T00:50:17.842Z,24.26
2016-11-08T00:51:17.852Z,24.35
2016-11-08T00:52:17.633Z,24.26
2016-11-08T00:53:18.818Z,24.45
2016-11-08T00:54:17.876Z,24.26
2016-11-08T00:55:17.669Z,24.45
2016-11-08T00:56:17.892Z,24.26
2016-11-08T00:57:17.588Z,24.26
2016-11-08T00:58:17.905Z,24.55
2016-11-08T00:59:17.913Z,24.55
2016-11-08T01:00:17.918Z,24.16
2016-11-08T01:01:17.927Z,24.45
2016-11-08T01:02:17.620Z,24.35
2016-11-08T01:03:17.629Z,24.55
2016-11-08T01:04:18.807Z,24.26
2016-11-08T01:05:17.642Z,24.26
2016-11-08T01:06:17.652Z,24.45
2016-11-08T01:07:18.024Z,24.35
2016-11-08T01:08:17.979Z,24.55
2016-11-08T01:09:17.989Z,24.26
2016-11-08T01:10:17.995Z,24.45
2016-11-08T01:11:18.002Z,24.35
2016-11-08T01:12:18.089Z,24.16
2016-11-08T01:13:18.070Z,24.16
2016-11-08T01:14:18.076Z,24.45
2016-11-08T01:15:18.672Z,24.35
2016-11-08T01:16:18.041Z,24.16
2016-11-08T01:17:17.835Z,24.06
2016-11-08T01:18:18.357Z,24.06
2016-11-08T01:19:18.113Z,24.06
2016-11-08T01:20:17.758Z,24.65
2016-11-08T01:21:18.078Z,24.35
2016-11-08T01:22:17.773Z,24.45
2016-11-08T01:23:17.830Z,24.45
2016-11-08T01:24:17.791Z,24.35
2016-11-08T01:25:18.160Z,24.45
2016-11-08T01:26:18.755Z,24.35
2016-11-08T01:27:17.812Z,24.35
2016-11-08T01:28:18.184Z,24.35
2016-11-08T01:29:18.169Z,24.45
2016-11-08T01:30:17.884Z,24.26
2016-11-08T01:31:18.189Z,24.16
2016-11-08T01:32:17.901Z,24.16
2016-11-08T01:33:17.856Z,24.16
2016-11-08T01:34:18.177Z,24.26
2016-11-08T01:35:18.171Z,24.45
2016-11-08T01:36:17.879Z,24.06
2016-11-08T01:37:18.137Z,24.26
2016-11-08T01:38:17.946Z,24.45
2016-11-08T01:39:19.237Z,24.45
2016-11-08T01:40:18.221Z,24.35
2016-11-08T01:41:18.581Z,24.06
2016-11-08T01:42:17.923Z,24.16
2016-11-08T01:43:18.242Z,24.06
2016-11-08T01:44:18.253Z,24.16
2016-11-08T01:45:18.261Z,24.16
2016-11-08T01:46:18.265Z,23.96
2016-11-08T01:47:17.961Z,24.06
2016-11-08T01:48:17.969Z,24.06
2016-11-08T01:49:18.293Z,24.06
2016-11-08T01:50:18.347Z,24.35
2016-11-08T01:51:18.307Z,24.06
2016-11-08T01:52:18.714Z,24.26
2016-11-08T01:53:18.005Z,24.45
2016-11-08T01:54:18.016Z,24.35
2016-11-08T01:55:18.022Z,24.45
2016-11-08T01:56:18.401Z,24.06
2016-11-08T01:57:18.351Z,24.26
2016-11-08T01:58:18.046Z,23.87
2016-11-08T01:59:18.414Z,24.26
2016-11-08T02:00:18.063Z,24.16
2016-11-08T02:01:19.274Z,24.35
2016-11-08T02:02:18.393Z,23.96
2016-11-08T02:03:18.585Z,24.26
2016-11-08T02:04:18.403Z,23.87
2016-11-08T02:05:18.463Z,24.16
2016-11-08T02:06:18.419Z,24.06
2016-11-08T02:07:18.425Z,24.35
2016-11-08T02:08:18.173Z,24.26
2016-11-08T02:09:18.181Z,24.06
2016-11-08T02:10:18.136Z,24.16
2016-11-08T02:11:18.458Z,23.87
2016-11-08T02:12:19.616Z,23.87
2016-11-08T02:13:18.159Z,24.16
2016-11-08T02:14:18.167Z,24.16
2016-11-08T02:15:18.224Z,24.16
2016-11-08T02:16:18.233Z,24.26
2016-11-08T02:17:18.541Z,23.96
2016-11-08T02:18:18.510Z,24.26
2016-11-08T02:19:18.569Z,24.06
2016-11-08T02:20:18.524Z,24.26
2016-11-08T02:21:18.221Z,23.87
2016-11-08T02:22:18.541Z,24.06
2016-11-08T02:23:19.299Z,23.87
2016-11-08T02:24:18.244Z,24.05
2016-11-08T02:25:18.664Z,24.35
2016-11-08T02:26:18.623Z,24.16
2016-11-08T02:27:19.410Z,24.06
2016-11-08T02:28:18.586Z,24.16
2016-11-08T02:29:18.647Z,24.16
2016-11-08T02:30:18.287Z,24.05
2016-11-08T02:31:18.660Z,23.87
2016-11-08T02:32:18.615Z,24.26
2016-11-08T02:33:18.676Z,24.16
2016-11-08T02:34:18.368Z,23.87
2016-11-08T02:35:18.639Z,24.06
2016-11-08T02:36:18.748Z,24.16
2016-11-08T02:37:18.652Z,24.05
2016-11-08T02:38:19.360Z,24.16
2016-11-08T02:39:18.718Z,24.26
2016-11-08T02:40:18.680Z,24.06
2016-11-08T02:41:18.684Z,24.16
2016-11-08T02:42:18.427Z,24.16
2016-11-08T02:43:18.385Z,24.06
2016-11-08T02:44:18.395Z,24.05
2016-11-08T02:45:18.766Z,24.24
2016-11-08T02:46:18.409Z,23.87
2016-11-08T02:47:18.467Z,23.48
2016-11-08T02:48:18.474Z,23.77
2016-11-08T02:49:19.345Z,24.34
2016-11-08T02:50:18.752Z,24.35
2016-11-08T02:51:18.812Z,24.05
2016-11-08T02:52:18.768Z,24.15
2016-11-08T02:53:18.460Z,24.24
2016-11-08T02:54:18.520Z,23.86
2016-11-08T02:55:18.476Z,23.77
2016-11-08T02:56:18.848Z,23.96
2016-11-08T02:57:18.807Z,23.76
2016-11-08T02:58:18.812Z,23.87
2016-11-08T02:59:18.819Z,23.87
2016-11-08T03:00:19.028Z,23.87
2016-11-08T03:01:18.521Z,24.06
2016-11-08T03:02:18.842Z,23.96
2016-11-08T03:03:19.399Z,24.35
2016-11-08T03:04:18.908Z,24.26
2016-11-08T03:05:18.864Z,23.96
2016-11-08T03:06:18.872Z,23.77
2016-11-08T03:07:18.567Z,23.48
2016-11-08T03:08:18.576Z,23.77
2016-11-08T03:09:19.846Z,24.44
2016-11-08T03:10:18.642Z,24.45
2016-11-08T03:11:18.960Z,24.24
2016-11-08T03:12:18.919Z,24.16
2016-11-08T03:13:20.026Z,24.26
2016-11-08T03:14:18.620Z,24.24
2016-11-08T03:15:18.630Z,23.87
2016-11-08T03:16:18.937Z,23.28
2016-11-08T03:17:18.957Z,23.48
2016-11-08T03:18:18.961Z,23.38
2016-11-08T03:19:18.969Z,23.38
2016-11-08T03:20:18.666Z,23.66
2016-11-08T03:21:19.037Z,23.68
2016-11-08T03:22:18.993Z,23.76
2016-11-08T03:23:18.689Z,23.86
2016-11-08T03:24:20.012Z,23.76
2016-11-08T03:25:18.702Z,23.77
2016-11-08T03:26:19.022Z,23.77
2016-11-08T03:27:19.131Z,23.77
2016-11-08T03:28:19.036Z,23.47
2016-11-08T03:29:18.782Z,23.95
2016-11-08T03:30:19.093Z,24.34
2016-11-08T03:31:19.061Z,23.66
2016-11-08T03:32:18.806Z,23.66
2016-11-08T03:33:19.126Z,23.87
2016-11-08T03:34:19.085Z,23.96
2016-11-08T03:35:19.641Z,23.86
2016-11-08T03:36:18.788Z,23.57
2016-11-08T03:37:18.793Z,23.38
2016-11-08T03:38:18.851Z,23.27
2016-11-08T03:39:19.170Z,23.38
2016-11-08T03:40:19.126Z,23.48
2016-11-08T03:41:19.138Z,23.57
2016-11-08T03:42:19.150Z,23.76
2016-11-08T03:43:19.200Z,23.87
2016-11-08T03:44:18.846Z,23.28
2016-11-08T03:45:19.170Z,23.19
2016-11-08T03:46:19.527Z,23.28
2016-11-08T03:47:19.180Z,23.28
2016-11-08T03:48:18.924Z,23.38
2016-11-08T03:49:18.884Z,23.76
2016-11-08T03:50:18.891Z,24.06
2016-11-08T03:51:18.897Z,23.68
2016-11-08T03:52:19.218Z,23.48
2016-11-08T03:53:19.225Z,23.47
2016-11-08T03:54:18.969Z,23.37
2016-11-08T03:55:18.929Z,23.09
2016-11-08T03:56:19.250Z,23.68
2016-11-08T03:57:19.705Z,23.77
2016-11-08T03:58:18.950Z,23.48
2016-11-08T03:59:19.272Z,23.48
2016-11-08T04:00:19.329Z,23.37
2016-11-08T04:01:19.022Z,23.48
2016-11-08T04:02:19.344Z,23.08
2016-11-08T04:03:18.989Z,23.08
2016-11-08T04:04:19.309Z,23.19
2016-11-08T04:05:19.314Z,23.28
2016-11-08T04:06:19.011Z,23.47
2016-11-08T04:07:19.332Z,23.38
2016-11-08T04:08:19.537Z,23.37
2016-11-08T04:09:19.344Z,23.57
2016-11-08T04:10:20.329Z,23.86
2016-11-08T04:11:19.049Z,23.48
2016-11-08T04:12:19.104Z,23.38
2016-11-08T04:13:19.062Z,23.09
2016-11-08T04:14:19.384Z,23.77
2016-11-08T04:15:19.078Z,23.08
2016-11-08T04:16:19.087Z,23.68
2016-11-08T04:17:19.458Z,23.38
2016-11-08T04:18:19.413Z,23.95
2016-11-08T04:19:19.419Z,23.37
2016-11-08T04:20:19.427Z,23.37
2016-11-08T04:21:20.536Z,23.27
2016-11-08T04:22:19.444Z,23.47
2016-11-08T04:23:19.449Z,23.37
2016-11-08T04:24:19.457Z,23.47
2016-11-08T04:25:19.465Z,23.28
2016-11-08T04:26:19.472Z,23.37
2016-11-08T04:27:19.218Z,23.87
2016-11-08T04:28:19.236Z,23.47
2016-11-08T04:29:19.545Z,23.27
2016-11-08T04:30:19.507Z,23.48
2016-11-08T04:31:19.561Z,22.99
2016-11-08T04:32:20.206Z,23.66
2016-11-08T04:33:19.527Z,23.47
2016-11-08T04:34:19.581Z,23.47
2016-11-08T04:35:19.225Z,23.47
2016-11-08T04:36:19.236Z,23.27
2016-11-08T04:37:19.291Z,23.37
2016-11-08T04:38:19.563Z,23.95
2016-11-08T04:39:19.308Z,23.08
2016-11-08T04:40:19.263Z,23.76
2016-11-08T04:41:19.637Z,23.86
2016-11-08T04:42:19.641Z,23.37
2016-11-08T04:43:20.286Z,23.57
2016-11-08T04:44:19.295Z,23.37
2016-11-08T04:45:19.354Z,23.47
2016-11-08T04:46:19.309Z,23.66
2016-11-08T04:47:19.319Z,23.27
2016-11-08T04:48:19.325Z,23.18
2016-11-08T04:49:19.382Z,23.27
2016-11-08T04:50:19.654Z,23.27
2016-11-08T04:51:19.659Z,23.95
2016-11-08T04:52:19.665Z,23.37
2016-11-08T04:53:19.675Z,23.27
2016-11-08T04:54:20.181Z,23.86
2016-11-08T04:55:19.690Z,23.76
2016-11-08T04:56:19.748Z,23.47
2016-11-08T04:57:19.709Z,23.47
2016-11-08T04:58:19.712Z,23.47
2016-11-08T04:59:19.771Z,23.37
2016-11-08T05:00:19.776Z,23.18
2016-11-08T05:01:19.470Z,23.27
2016-11-08T05:02:19.743Z,23.18
2016-11-08T05:03:19.440Z,23.37
2016-11-08T05:04:19.445Z,23.37
2016-11-08T05:05:20.263Z,23.66
2016-11-08T05:06:19.458Z,23.47
2016-11-08T05:07:19.778Z,22.89
2016-11-08T05:08:19.557Z,23.37
2016-11-08T05:09:19.794Z,23.37
2016-11-08T05:10:19.590Z,23.27
2016-11-08T05:11:19.808Z,23.57
2016-11-08T05:12:19.506Z,23.18
2016-11-08T05:13:19.875Z,23.37
2016-11-08T05:14:19.832Z,23.76
2016-11-08T05:15:19.841Z,23.27
2016-11-08T05:16:19.999Z,23.47
2016-11-08T05:17:19.904Z,23.37
2016-11-08T05:18:19.550Z,23.47
2016-11-08T05:19:19.868Z,23.09
2016-11-08T05:20:19.878Z,23.37
2016-11-08T05:21:19.571Z,23.27
2016-11-08T05:22:19.941Z,23.27
2016-11-08T05:23:19.637Z,23.08
2016-11-08T05:24:19.594Z,23.08
2016-11-08T05:25:19.603Z,23.27
2016-11-08T05:26:19.922Z,23.08
2016-11-08T05:27:19.876Z,23.18
2016-11-08T05:28:19.723Z,23.37
2016-11-08T05:29:19.630Z,23.37
2016-11-08T05:30:19.639Z,23.27
2016-11-08T05:31:19.960Z,22.99
2016-11-08T05:32:19.967Z,23.37
2016-11-08T05:33:19.978Z,23.18
2016-11-08T05:34:20.032Z,23.18
2016-11-08T05:35:20.040Z,23.37
2016-11-08T05:36:19.997Z,23.27
2016-11-08T05:37:19.692Z,23.08
2016-11-08T05:38:19.797Z,23.27
2016-11-08T05:39:19.706Z,23.47
2016-11-08T05:40:20.825Z,23.28
2016-11-08T05:41:20.033Z,23.37
2016-11-08T05:42:20.040Z,23.18
2016-11-08T05:43:20.051Z,23.27
2016-11-08T05:44:20.059Z,23.47
2016-11-08T05:45:20.069Z,23.27
2016-11-08T05:46:20.120Z,23.27
2016-11-08T05:47:20.077Z,23.27
2016-11-08T05:48:19.774Z,23.27
2016-11-08T05:49:20.092Z,23.18
2016-11-08T05:50:20.149Z,23.27
2016-11-08T05:51:20.709Z,23.18
2016-11-08T05:52:20.120Z,23.37
2016-11-08T05:53:19.810Z,23.37
2016-11-08T05:54:19.867Z,23.18
2016-11-08T05:55:20.201Z,23.18
2016-11-08T05:56:19.881Z,23.37
2016-11-08T05:57:19.844Z,23.27
2016-11-08T05:58:20.172Z,23.08
2016-11-08T05:59:20.167Z,23.18
2016-11-08T06:00:20.174Z,23.27
2016-11-08T06:01:20.265Z,23.86
2016-11-08T06:02:20.641Z,23.18
2016-11-08T06:03:19.884Z,23.47
2016-11-08T06:04:20.203Z,22.99
2016-11-08T06:05:20.213Z,23.18
2016-11-08T06:06:19.953Z,23.27
2016-11-08T06:07:20.277Z,23.18
2016-11-08T06:08:20.235Z,23.57
2016-11-08T06:09:19.979Z,23.08
2016-11-08T06:10:20.255Z,23.76
2016-11-08T06:11:20.307Z,23.27
2016-11-08T06:12:20.314Z,22.99
2016-11-08T06:13:20.473Z,23.37
2016-11-08T06:14:20.278Z,23.18
2016-11-08T06:15:19.974Z,23.18
2016-11-08T06:16:19.984Z,23.18
2016-11-08T06:17:20.301Z,23.27
2016-11-08T06:18:20.307Z,23.18
2016-11-08T06:19:20.322Z,23.18
2016-11-08T06:20:20.324Z,23.18
2016-11-08T06:21:20.382Z,23.27
2016-11-08T06:22:20.337Z,23.37
2016-11-08T06:23:20.033Z,23.37
2016-11-08T06:24:20.045Z,23.08
2016-11-08T06:25:20.046Z,23.47
2016-11-08T06:26:21.285Z,23.37
2016-11-08T06:27:20.374Z,23.27
2016-11-08T06:28:20.566Z,23.27
2016-11-08T06:29:20.390Z,23.18
2016-11-08T06:30:20.397Z,23.18
2016-11-08T06:31:20.090Z,23.08
2016-11-08T06:32:20.099Z,23.16
2016-11-08T06:33:20.420Z,23.27
2016-11-08T06:34:20.478Z,23.37
2016-11-08T06:35:20.432Z,23.37
2016-11-08T06:36:20.176Z,23.18
2016-11-08T06:37:21.361Z,23.27
2016-11-08T06:38:20.146Z,23.07
2016-11-08T06:39:20.152Z,23.18
2016-11-08T06:40:20.519Z,23.27
2016-11-08T06:41:20.217Z,23.37
2016-11-08T06:42:20.256Z,23.18
2016-11-08T06:43:20.491Z,23.27
2016-11-08T06:44:20.499Z,23.18
2016-11-08T06:45:20.510Z,23.37
2016-11-08T06:46:20.519Z,23.37
2016-11-08T06:47:20.512Z,23.18
2016-11-08T06:48:21.034Z,23.47
2016-11-08T06:49:20.275Z,23.37
2016-11-08T06:50:20.281Z,23.37
2016-11-08T06:51:20.550Z,23.47
2016-11-08T06:52:20.560Z,23.08
2016-11-08T06:53:20.567Z,23.18
2016-11-08T06:54:20.365Z,23.18
2016-11-08T06:55:20.582Z,23.18
2016-11-08T06:56:20.591Z,23.27
2016-11-08T06:57:20.286Z,22.99
2016-11-08T06:58:20.393Z,23.18
2016-11-08T06:59:21.064Z,22.99
2016-11-08T07:00:20.620Z,23.08
2016-11-08T07:01:20.314Z,23.18
2016-11-08T07:02:20.686Z,23.18
2016-11-08T07:03:20.643Z,23.19
2016-11-08T07:04:20.654Z,22.99
2016-11-08T07:05:20.655Z,22.99
2016-11-08T07:06:20.353Z,22.89
2016-11-08T07:07:20.671Z,22.99
2016-11-08T07:08:20.372Z,22.99
2016-11-08T07:09:20.425Z,22.99
2016-11-08T07:10:21.043Z,22.69
2016-11-08T07:11:20.437Z,22.99
2016-11-08T07:12:21.733Z,23.08
2016-11-08T07:13:20.405Z,23.08
2016-11-08T07:14:21.174Z,23.09
2016-11-08T07:15:20.732Z,23.18
2016-11-08T07:16:20.426Z,23.18
2016-11-08T07:17:20.747Z,23.08
2016-11-08T07:18:20.491Z,22.79
2016-11-08T07:19:20.447Z,22.4
2016-11-08T07:20:20.767Z,22.22
2016-11-08T07:21:20.514Z,22.31
2016-11-08T07:22:20.840Z,22.02
2016-11-08T07:23:20.787Z,22.22
2016-11-08T07:24:20.485Z,21.65
2016-11-08T07:25:20.957Z,21.75
2016-11-08T07:26:20.498Z,21.17
2016-11-08T07:27:20.506Z,20.89
2016-11-08T07:28:20.516Z,20.5
2016-11-08T07:29:20.521Z,20.03
2016-11-08T07:30:20.839Z,19.84
2016-11-08T07:31:20.591Z,19.55
2016-11-08T07:32:20.857Z,19.17
2016-11-08T07:33:20.603Z,19.37
2016-11-08T07:34:21.972Z,18.98
2016-11-08T07:35:20.566Z,18.88
2016-11-08T07:36:21.073Z,18.4
2016-11-08T07:37:20.892Z,18.21
2016-11-08T07:38:20.900Z,18.41
2016-11-08T07:39:20.962Z,18.12
2016-11-08T07:40:20.967Z,18.21
2016-11-08T07:41:20.608Z,18.23
2016-11-08T07:42:20.931Z,18.03
2016-11-08T07:43:20.679Z,18.13
2016-11-08T07:44:21.030Z,18.13
2016-11-08T07:45:21.854Z,18.13
2016-11-08T07:46:20.959Z,17.93
2016-11-08T07:47:20.705Z,18.23
2016-11-08T07:48:20.664Z,17.74
2016-11-08T07:49:20.672Z,17.83
2016-11-08T07:50:20.989Z,17.94
2016-11-08T07:51:21.001Z,18.04
2016-11-08T07:52:21.040Z,17.84
2016-11-08T07:53:21.014Z,17.84
2016-11-08T07:54:21.073Z,17.84
2016-11-08T07:55:20.799Z,17.84
2016-11-08T07:56:21.524Z,17.94
2016-11-08T07:57:20.732Z,17.65
2016-11-08T07:58:21.102Z,18.13
2016-11-08T07:59:21.063Z,18.13
2016-11-08T08:00:21.867Z,17.94
2016-11-08T08:01:20.766Z,17.84
2016-11-08T08:02:21.080Z,17.06
2016-11-08T08:03:21.077Z,17.06
2016-11-08T08:04:21.098Z,17.35
2016-11-08T08:05:21.122Z,17.06
2016-11-08T08:06:21.112Z,17.17
2016-11-08T08:07:20.858Z,17.65
2016-11-08T08:08:21.179Z,17.74
2016-11-08T08:09:21.137Z,17.74
2016-11-08T08:10:21.157Z,17.65
2016-11-08T08:11:21.588Z,17.25
2016-11-08T08:12:20.847Z,17.55
2016-11-08T08:13:20.902Z,17.55
2016-11-08T08:14:21.222Z,17.16
2016-11-08T08:15:20.876Z,17.55
2016-11-08T08:16:20.877Z,17.35
2016-11-08T08:17:20.885Z,17.16
2016-11-08T08:18:20.944Z,17.76
2016-11-08T08:19:21.300Z,17.66
2016-11-08T08:20:21.220Z,17.07
2016-11-08T08:21:21.277Z,17.07
2016-11-08T08:22:21.878Z,17.06
2016-11-08T08:23:21.350Z,17.36
2016-11-08T08:24:21.253Z,17.36
2016-11-08T08:25:21.360Z,17.65
2016-11-08T08:26:21.265Z,17.56
2016-11-08T08:27:21.276Z,17.27
2016-11-08T08:28:21.338Z,17.27
2016-11-08T08:29:20.981Z,17.17
2016-11-08T08:30:21.039Z,17.56
2016-11-08T08:31:21.409Z,17.56
2016-11-08T08:32:21.314Z,17.56
2016-11-08T08:33:21.829Z,17.17
2016-11-08T08:34:21.767Z,17.56
2016-11-08T08:35:21.026Z,17.36
2016-11-08T08:36:21.486Z,17.17
2016-11-08T08:37:22.044Z,17.85
2016-11-08T08:38:21.191Z,17.76
2016-11-08T08:39:21.214Z,17.17
2016-11-08T08:40:21.429Z,17.27
2016-11-08T08:41:21.126Z,17.36
2016-11-08T08:42:22.440Z,17.27
2016-11-08T08:43:21.452Z,17.27
2016-11-08T08:44:21.709Z,17.27
2016-11-08T08:45:21.157Z,17.56
2016-11-08T08:46:21.211Z,17.56
2016-11-08T08:47:21.169Z,17.56
2016-11-08T08:48:21.179Z,17.56
2016-11-08T08:49:21.337Z,17.36
2016-11-08T08:50:21.505Z,17.17
2016-11-08T08:51:23.105Z,17.27
2016-11-08T08:52:21.525Z,17.07
2016-11-08T08:53:21.616Z,17.07
2016-11-08T08:54:21.541Z,17.36
2016-11-08T08:55:21.697Z,17.56
2016-11-08T08:56:21.191Z,17.36
2016-11-08T08:57:22.462Z,17.66
2016-11-08T08:58:21.520Z,17.85
2016-11-08T08:59:21.265Z,17.76
2016-11-08T09:00:21.675Z,18.15
2016-11-08T09:01:21.589Z,17.85
2016-11-08T09:02:21.589Z,17.85
2016-11-08T09:03:22.295Z,18.05
2016-11-08T09:04:21.668Z,18.05
2016-11-08T09:05:22.476Z,17.85
2016-11-08T09:06:21.735Z,17.95
2016-11-08T09:07:21.328Z,18.04
2016-11-08T09:08:23.086Z,17.95
2016-11-08T09:09:21.711Z,17.95
2016-11-08T09:10:22.722Z,18.04
2016-11-08T09:11:22.715Z,17.95
2016-11-08T09:12:21.317Z,17.95
2016-11-08T09:13:21.690Z,17.95
2016-11-08T09:14:21.746Z,17.76
2016-11-08T09:15:22.407Z,18.05
2016-11-08T09:16:21.813Z,17.95
2016-11-08T09:17:21.460Z,17.95
2016-11-08T09:18:21.881Z,17.95
2016-11-08T09:19:23.526Z,17.95
2016-11-08T09:20:21.746Z,17.94
2016-11-08T09:21:21.904Z,18.24
2016-11-08T09:22:21.501Z,17.95
2016-11-08T09:23:22.468Z,18.05
2016-11-08T09:24:21.773Z,17.65
2016-11-08T09:25:21.792Z,17.74
2016-11-08T09:26:21.877Z,17.66
2016-11-08T09:28:21.447Z,17.94
2016-11-08T09:29:21.917Z,18.04
2016-11-08T09:30:22.411Z,18.13
2016-11-08T09:31:24.586Z,17.74
2016-11-08T09:32:23.621Z,18.04
2016-11-08T09:33:21.852Z,18.05
2016-11-08T09:34:21.806Z,18.13
2016-11-08T09:35:21.865Z,18.13
2016-11-08T09:36:22.075Z,18.13
2016-11-08T09:37:23.333Z,18.13
2016-11-08T09:38:36.453Z,18.05
2016-11-08T09:39:21.844Z,17.65
2016-11-08T09:40:22.854Z,17.94
2016-11-08T09:41:23.017Z,17.94
2016-11-08T09:42:21.556Z,17.84
2016-11-08T09:43:22.508Z,17.84
2016-11-08T09:44:22.737Z,17.94
2016-11-08T09:45:22.033Z,18.04
2016-11-08T09:46:22.400Z,17.94
2016-11-08T09:47:22.460Z,17.74
2016-11-08T09:48:23.107Z,17.76
2016-11-08T09:49:21.713Z,17.07
2016-11-08T09:50:22.936Z,17.66
2016-11-08T09:51:21.732Z,17.46
2016-11-08T09:52:23.355Z,17.36
2016-11-08T09:53:23.066Z,17.07
2016-11-08T09:54:22.359Z,17.17
2016-11-08T09:55:22.727Z,17.66
2016-11-08T09:56:22.686Z,17.85
2016-11-08T09:57:21.880Z,17.74
2016-11-08T09:58:36.565Z,17.76
2016-11-08T09:59:22.708Z,17.07
2016-11-08T10:00:22.455Z,17.07
2016-11-08T10:01:22.261Z,17.07
2016-11-08T10:02:22.974Z,17.76
2016-11-08T10:03:22.556Z,17.74
2016-11-08T10:04:22.099Z,17.07
2016-11-08T10:05:36.671Z,17.17
2016-11-08T10:07:21.758Z,17.66
2016-11-08T10:08:21.774Z,17.36
2016-11-08T10:09:22.136Z,17.66
2016-11-08T10:10:22.182Z,17.27
2016-11-08T10:11:22.132Z,17.17
2016-11-08T10:12:21.975Z,17.36
2016-11-08T10:13:22.181Z,17.36
2016-11-08T10:14:21.815Z,17.27
2016-11-08T10:15:22.157Z,17.17
2016-11-08T10:16:21.880Z,17.46
2016-11-08T10:17:21.890Z,17.46
2016-11-08T10:18:22.262Z,17.36
2016-11-08T10:19:22.293Z,17.36
2016-11-08T10:20:22.227Z,17.46
2016-11-08T10:21:21.869Z,17.56
2016-11-08T10:22:21.879Z,17.46
2016-11-08T10:23:22.198Z,17.46
2016-11-08T10:24:22.352Z,17.46
2016-11-08T10:25:22.213Z,17.27
2016-11-08T10:26:23.148Z,17.27
2016-11-08T10:27:22.283Z,17.27
2016-11-08T10:28:23.076Z,17.36
2016-11-08T10:29:22.245Z,17.17
2016-11-08T10:30:22.403Z,17.27
2016-11-08T10:31:22.352Z,17.46
2016-11-08T10:32:22.007Z,17.46
2016-11-08T10:33:22.365Z,17.56
2016-11-08T10:34:22.339Z,17.46
2016-11-08T10:35:22.345Z,17.46
2016-11-08T10:36:22.301Z,17.46
2016-11-08T10:37:22.363Z,17.36
2016-11-08T10:38:22.145Z,17.36
2016-11-08T10:39:22.013Z,17.36
2016-11-08T10:40:22.384Z,17.56
2016-11-08T10:41:22.401Z,17.46
2016-11-08T10:42:22.087Z,17.46
2016-11-08T10:43:22.094Z,17.17
2016-11-08T10:44:22.188Z,17.56
2016-11-08T10:45:22.061Z,17.17
2016-11-08T10:46:22.170Z,17.27
2016-11-08T10:47:22.483Z,17.17
2016-11-08T10:48:22.087Z,17.46
2016-11-08T10:49:23.660Z,17.27
2016-11-08T10:50:22.411Z,17.46
2016-11-08T10:51:22.246Z,17.56
2016-11-08T10:52:22.479Z,17.36
2016-11-08T10:53:22.488Z,17.07
2016-11-08T10:54:22.203Z,17.36
2016-11-08T10:55:22.244Z,17.36
2016-11-08T10:56:22.555Z,17.27
2016-11-08T10:57:22.207Z,17.46
2016-11-08T10:58:22.809Z,17.17
2016-11-08T10:59:22.580Z,17.36
2016-11-08T11:00:22.496Z,17.46
2016-11-08T11:01:22.207Z,17.27
2016-11-08T11:02:22.249Z,17.36
2016-11-08T11:03:22.520Z,17.46
2016-11-08T11:04:22.629Z,17.46
2016-11-08T11:05:22.647Z,17.36
2016-11-08T11:06:22.629Z,17.36
2016-11-08T11:07:22.675Z,17.27
2016-11-08T11:08:22.614Z,17.36
2016-11-08T11:09:22.621Z,17.17
2016-11-08T11:10:22.316Z,17.17
2016-11-08T11:11:22.636Z,17.27
2016-11-08T11:12:22.391Z,17.46
2016-11-08T11:13:22.680Z,17.27
2016-11-08T11:14:22.413Z,17.56
2016-11-08T11:15:22.653Z,17.27
2016-11-08T11:16:22.678Z,17.45
2016-11-08T11:17:22.759Z,17.07
2016-11-08T11:18:22.333Z,17.45
2016-11-08T11:19:22.784Z,17.35
2016-11-08T11:20:22.481Z,17.25
2016-11-08T11:21:22.456Z,17.16
2016-11-08T11:22:22.784Z,17.65
2016-11-08T11:23:22.454Z,17.16
2016-11-08T11:24:22.744Z,17.55
2016-11-08T11:25:22.705Z,17.06
2016-11-08T11:26:22.552Z,17.74
2016-11-08T11:27:22.850Z,17.74
2016-11-08T11:28:22.873Z,17.06
2016-11-08T11:29:22.426Z,17.55
2016-11-08T11:30:22.747Z,17.55
2016-11-08T11:31:22.755Z,17.16
2016-11-08T11:32:22.836Z,16.96
2016-11-08T11:33:23.583Z,17.16
2016-11-08T11:34:22.858Z,17.06
2016-11-08T11:35:22.852Z,17.45
2016-11-08T11:36:22.799Z,17.06
2016-11-08T11:37:22.541Z,17.25
2016-11-08T11:38:22.931Z,17.25
2016-11-08T11:39:22.561Z,16.96
2016-11-08T11:40:23.919Z,17.65
2016-11-08T11:41:22.532Z,17.25
2016-11-08T11:42:22.920Z,17.16
2016-11-08T11:43:22.592Z,17.16
2016-11-08T11:44:22.553Z,17.55
2016-11-08T11:45:22.934Z,17.35
2016-11-08T11:46:23.039Z,17.35
2016-11-08T11:47:22.716Z,17.06
2016-11-08T11:48:22.584Z,17.06
2016-11-08T11:49:22.962Z,17.35
2016-11-08T11:50:23.096Z,17.06
2016-11-08T11:51:22.946Z,16.96
2016-11-08T11:52:24.113Z,17.25
2016-11-08T11:53:22.937Z,17.25
2016-11-08T11:54:22.983Z,17.45
2016-11-08T11:55:23.102Z,17.65
2016-11-08T11:56:23.020Z,17.16
2016-11-08T11:57:23.101Z,17.45
2016-11-08T11:58:23.081Z,17.55
2016-11-08T11:59:23.018Z,17.55
2016-11-08T12:00:23.048Z,17.16
2016-11-08T12:01:23.110Z,17.06
2016-11-08T12:02:23.085Z,17.06
2016-11-08T12:03:23.123Z,17.06
2016-11-08T12:04:23.180Z,17.06
2016-11-08T12:05:22.792Z,17.65
2016-11-08T12:06:23.110Z,17.54
2016-11-08T12:07:22.902Z,17.64
2016-11-08T12:08:23.165Z,17.54
2016-11-08T12:09:23.178Z,17.15
2016-11-08T12:10:22.884Z,17.64
2016-11-08T12:11:23.574Z,17.55
2016-11-08T12:12:23.138Z,17.06
2016-11-08T12:13:23.234Z,17.05
2016-11-08T12:14:23.134Z,17.25
2016-11-08T12:15:22.809Z,17.55
2016-11-08T12:16:23.588Z,17.25
2016-11-08T12:17:23.245Z,17.83
2016-11-08T12:18:23.932Z,17.74
2016-11-08T12:19:23.001Z,17.55
2016-11-08T12:20:23.231Z,17.55
2016-11-08T12:21:23.308Z,17.06
2016-11-08T12:22:23.281Z,17.83
2016-11-08T12:23:23.426Z,17.83
2016-11-08T12:24:23.303Z,17.83
2016-11-08T12:25:22.979Z,17.93
2016-11-08T12:26:23.266Z,17.93
2016-11-08T12:27:23.384Z,17.83
2016-11-08T12:28:22.936Z,17.74
2016-11-08T12:29:23.005Z,17.83
2016-11-08T12:30:23.470Z,17.93
2016-11-08T12:31:23.269Z,17.93
2016-11-08T12:32:23.326Z,18.03
2016-11-08T12:33:23.426Z,17.93
2016-11-08T12:34:23.405Z,17.83
2016-11-08T12:35:23.064Z,17.83
2016-11-08T12:36:23.424Z,17.83
2016-11-08T12:37:23.016Z,18.03
2016-11-08T12:38:23.031Z,17.74
2016-11-08T12:39:23.059Z,17.83
2016-11-08T12:40:23.393Z,17.83
2016-11-08T12:41:23.468Z,17.54
2016-11-08T12:42:23.753Z,17.54
2016-11-08T12:43:23.122Z,17.74
2016-11-08T12:44:23.148Z,17.83
2016-11-08T12:45:23.499Z,17.05
2016-11-08T12:46:23.207Z,17.44
2016-11-08T12:47:23.930Z,17.05
2016-11-08T12:48:23.545Z,17.25
2016-11-08T12:49:23.526Z,17.64
2016-11-08T12:50:23.562Z,17.15
2016-11-08T12:51:23.196Z,17.64
2016-11-08T12:52:23.531Z,17.55
2016-11-08T12:53:23.216Z,17.54
2016-11-08T12:54:23.578Z,17.25